sensor_id;sensor_type;location;lat;lon;timestamp;pressure;altitude;pressure_sealevel;temperature;humidity
39363;BME280;25088;43.238;23.110;2023-05-11T00:00:31;96615.84;;;11.02;100.00
39363;BME280;25088;43.238;23.110;2023-05-11T00:02:56;96564.09;;;10.68;100.00
39363;BME280;25088;43.238;23.110;2023-05-11T00:05:22;96596.72;;;11.02;100.00
39363;BME280;25088;43.238;23.110;2023-05-11T00:07:47;96606.72;;;11.18;100.00
39363;BME280;25088;43.238;23.110;2023-05-11T00:10:13;96616.81;;;11.18;100.00
39363;BME280;25088;43.238;23.110;2023-05-11T00:12:38;96622.19;;;11.07;100.00
39363;BME280;25088;43.238;23.110;2023-05-11T00:15:04;96625.72;;;11.08;100.00
39363;BME280;25088;43.238;23.110;2023-05-11T00:17:30;96625.22;;;11.11;100.00
39363;BME280;25088;43.238;23.110;2023-05-11T00:19:55;96621.84;;;11.04;100.00
39363;BME280;25088;43.238;23.110;2023-05-11T00:22:21;96633.16;;;11.12;100.00
39363;BME280;25088;43.238;23.110;2023-05-11T00:24:46;96630.69;;;11.11;100.00
39363;BME280;25088;43.238;23.110;2023-05-11T00:27:12;96626.56;;;11.08;100.00
39363;BME280;25088;43.238;23.110;2023-05-11T00:29:37;96628.03;;;11.16;100.00
39363;BME280;25088;43.238;23.110;2023-05-11T00:32:03;96622.88;;;11.20;100.00
39363;BME280;25088;43.238;23.110;2023-05-11T00:34:28;96609.06;;;11.04;100.00
39363;BME280;25088;43.238;23.110;2023-05-11T00:36:54;96610.84;;;11.21;100.00
39363;BME280;25088;43.238;23.110;2023-05-11T00:39:19;96621.50;;;11.22;100.00
39363;BME280;25088;43.238;23.110;2023-05-11T00:41:44;96621.63;;;11.32;100.00
39363;BME280;25088;43.238;23.110;2023-05-11T00:44:10;96614.19;;;11.28;100.00
39363;BME280;25088;43.238;23.110;2023-05-11T00:46:36;96630.19;;;11.14;100.00
39363;BME280;25088;43.238;23.110;2023-05-11T00:49:02;96603.06;;;11.07;100.00
39363;BME280;25088;43.238;23.110;2023-05-11T00:51:27;96609.34;;;11.08;100.00
39363;BME280;25088;43.238;23.110;2023-05-11T00:53:53;96627.81;;;11.23;100.00
39363;BME280;25088;43.238;23.110;2023-05-11T00:56:18;96633.47;;;11.16;100.00
39363;BME280;25088;43.238;23.110;2023-05-11T00:58:44;96628.53;;;11.13;100.00
39363;BME280;25088;43.238;23.110;2023-05-11T01:01:10;96616.72;;;11.07;100.00
39363;BME280;25088;43.238;23.110;2023-05-11T01:03:36;96631.56;;;11.17;100.00
39363;BME280;25088;43.238;23.110;2023-05-11T01:06:26;96631.06;;;11.20;100.00
39363;BME280;25088;43.238;23.110;2023-05-11T01:09:02;96605.56;;;11.09;100.00
39363;BME280;25088;43.238;23.110;2023-05-11T01:11:43;96636.09;;;11.33;100.00
39363;BME280;25088;43.238;23.110;2023-05-11T01:14:36;96642.94;;;11.30;100.00
39363;BME280;25088;43.238;23.110;2023-05-11T01:17:09;96637.50;;;11.35;100.00
39363;BME280;25088;43.238;23.110;2023-05-11T01:19:57;96644.06;;;11.34;100.00
39363;BME280;25088;43.238;23.110;2023-05-11T01:22:50;96630.97;;;11.36;100.00
39363;BME280;25088;43.238;23.110;2023-05-11T01:31:10;96629.22;;;11.25;100.00
39363;BME280;25088;43.238;23.110;2023-05-11T01:33:42;96640.31;;;11.19;100.00
39363;BME280;25088;43.238;23.110;2023-05-11T01:36:10;96639.31;;;11.25;100.00
39363;BME280;25088;43.238;23.110;2023-05-11T01:38:40;96637.16;;;11.27;100.00
39363;BME280;25088;43.238;23.110;2023-05-11T01:41:17;96641.47;;;11.23;100.00
39363;BME280;25088;43.238;23.110;2023-05-11T01:43:46;96640.19;;;11.30;100.00
39363;BME280;25088;43.238;23.110;2023-05-11T01:46:16;96641.06;;;11.36;100.00
39363;BME280;25088;43.238;23.110;2023-05-11T01:48:46;96641.56;;;11.33;100.00
39363;BME280;25088;43.238;23.110;2023-05-11T01:51:14;96639.66;;;11.33;100.00
39363;BME280;25088;43.238;23.110;2023-05-11T01:53:43;96626.59;;;11.35;100.00
39363;BME280;25088;43.238;23.110;2023-05-11T01:56:09;96647.97;;;11.44;100.00
39363;BME280;25088;43.238;23.110;2023-05-11T01:58:37;96647.78;;;11.50;100.00
39363;BME280;25088;43.238;23.110;2023-05-11T02:01:03;96648.88;;;11.49;100.00
39363;BME280;25088;43.238;23.110;2023-05-11T02:03:30;96652.25;;;11.61;100.00
39363;BME280;25088;43.238;23.110;2023-05-11T02:05:57;96653.06;;;11.62;100.00
39363;BME280;25088;43.238;23.110;2023-05-11T02:08:26;96643.72;;;11.58;100.00
39363;BME280;25088;43.238;23.110;2023-05-11T02:10:54;96644.72;;;11.47;100.00
39363;BME280;25088;43.238;23.110;2023-05-11T02:13:20;96642.97;;;11.35;100.00
39363;BME280;25088;43.238;23.110;2023-05-11T02:15:49;96642.66;;;11.32;100.00
39363;BME280;25088;43.238;23.110;2023-05-11T02:18:18;96641.94;;;11.42;100.00
39363;BME280;25088;43.238;23.110;2023-05-11T02:20:45;96640.91;;;11.48;100.00
39363;BME280;25088;43.238;23.110;2023-05-11T02:23:12;96638.81;;;11.55;100.00
39363;BME280;25088;43.238;23.110;2023-05-11T02:25:39;96638.81;;;11.55;100.00
39363;BME280;25088;43.238;23.110;2023-05-11T02:28:05;96635.25;;;11.54;100.00
39363;BME280;25088;43.238;23.110;2023-05-11T02:30:34;96619.63;;;11.50;100.00
39363;BME280;25088;43.238;23.110;2023-05-11T02:33:05;96635.25;;;11.54;100.00
39363;BME280;25088;43.238;23.110;2023-05-11T02:35:36;96641.00;;;11.58;100.00
39363;BME280;25088;43.238;23.110;2023-05-11T02:38:03;96642.34;;;11.55;100.00
39363;BME280;25088;43.238;23.110;2023-05-11T02:40:32;96638.81;;;11.55;100.00
39363;BME280;25088;43.238;23.110;2023-05-11T02:43:06;96642.81;;;11.47;100.00
39363;BME280;25088;43.238;23.110;2023-05-11T02:45:33;96640.19;;;11.30;100.00
39363;BME280;25088;43.238;23.110;2023-05-11T02:48:06;96645.81;;;11.46;100.00
39363;BME280;25088;43.238;23.110;2023-05-11T02:50:35;96648.34;;;11.52;100.00
39363;BME280;25088;43.238;23.110;2023-05-11T02:53:05;96653.59;;;11.59;100.00
39363;BME280;25088;43.238;23.110;2023-05-11T02:55:32;96646.50;;;11.63;100.00
39363;BME280;25088;43.238;23.110;2023-05-11T02:57:58;96656.13;;;11.65;100.00
39363;BME280;25088;43.238;23.110;2023-05-11T03:00:23;96629.56;;;11.61;100.00
39363;BME280;25088;43.238;23.110;2023-05-11T03:02:49;96639.66;;;11.60;100.00
39363;BME280;25088;43.238;23.110;2023-05-11T03:05:14;96654.25;;;11.71;100.00
39363;BME280;25088;43.238;23.110;2023-05-11T03:07:41;96660.09;;;11.80;100.00
39363;BME280;25088;43.238;23.110;2023-05-11T03:10:07;96646.66;;;11.78;100.00
39363;BME280;25088;43.238;23.110;2023-05-11T03:12:33;96660.88;;;11.75;100.00
39363;BME280;25088;43.238;23.110;2023-05-11T03:14:59;96638.31;;;11.63;100.00
39363;BME280;25088;43.238;23.110;2023-05-11T03:17:27;96646.00;;;11.66;100.00
39363;BME280;25088;43.238;23.110;2023-05-11T03:19:55;96657.81;;;11.72;100.00
39363;BME280;25088;43.238;23.110;2023-05-11T03:22:21;96655.53;;;11.63;100.00
39363;BME280;25088;43.238;23.110;2023-05-11T03:24:48;96656.13;;;11.65;100.00
39363;BME280;25088;43.238;23.110;2023-05-11T03:27:15;96665.97;;;11.67;100.00
39363;BME280;25088;43.238;23.110;2023-05-11T03:29:42;96657.41;;;11.58;100.00
39363;BME280;25088;43.238;23.110;2023-05-11T03:32:10;96650.78;;;11.49;100.00
39363;BME280;25088;43.238;23.110;2023-05-11T03:34:35;96655.09;;;11.45;100.00
39363;BME280;25088;43.238;23.110;2023-05-11T03:37:01;96655.16;;;11.50;100.00
39363;BME280;25088;43.238;23.110;2023-05-11T03:39:28;96664.44;;;11.49;100.00
39363;BME280;25088;43.238;23.110;2023-05-11T03:41:55;96637.25;;;11.37;100.00
39363;BME280;25088;43.238;23.110;2023-05-11T03:44:22;96652.97;;;11.52;100.00
39363;BME280;25088;43.238;23.110;2023-05-11T03:46:49;96669.69;;;11.55;100.00
39363;BME280;25088;43.238;23.110;2023-05-11T03:49:16;96671.84;;;11.53;100.00
39363;BME280;25088;43.238;23.110;2023-05-11T03:51:43;96670.19;;;11.52;100.00
39363;BME280;25088;43.238;23.110;2023-05-11T03:54:09;96681.84;;;11.43;100.00
39363;BME280;25088;43.238;23.110;2023-05-11T03:56:38;96644.56;;;11.31;100.00
39363;BME280;25088;43.238;23.110;2023-05-11T03:59:04;96671.91;;;11.58;100.00
39363;BME280;25088;43.238;23.110;2023-05-11T04:01:30;96672.03;;;11.69;100.00
39363;BME280;25088;43.238;23.110;2023-05-11T04:03:56;96676.41;;;11.70;100.00
39363;BME280;25088;43.238;23.110;2023-05-11T04:06:21;96673.41;;;11.71;100.00
39363;BME280;25088;43.238;23.110;2023-05-11T04:08:47;96677.81;;;11.77;100.00
39363;BME280;25088;43.238;23.110;2023-05-11T04:11:13;96672.34;;;11.77;100.00
39363;BME280;25088;43.238;23.110;2023-05-11T04:13:38;96667.72;;;11.78;100.00
39363;BME280;25088;43.238;23.110;2023-05-11T04:16:04;96657.25;;;11.70;100.00
39363;BME280;25088;43.238;23.110;2023-05-11T04:18:30;96658.34;;;11.69;100.00
39363;BME280;25088;43.238;23.110;2023-05-11T04:20:55;96681.38;;;11.78;100.00
39363;BME280;25088;43.238;23.110;2023-05-11T04:23:21;96673.72;;;11.75;100.00
39363;BME280;25088;43.238;23.110;2023-05-11T04:25:51;96677.31;;;11.80;100.00
39363;BME280;25088;43.238;23.110;2023-05-11T04:28:16;96674.94;;;11.84;100.00
39363;BME280;25088;43.238;23.110;2023-05-11T04:30:42;96681.25;;;11.89;100.00
39363;BME280;25088;43.238;23.110;2023-05-11T04:33:08;96674.25;;;11.77;100.00
39363;BME280;25088;43.238;23.110;2023-05-11T04:35:38;96672.34;;;11.77;100.00
39363;BME280;25088;43.238;23.110;2023-05-11T04:38:03;96679.53;;;11.83;100.00
39363;BME280;25088;43.238;23.110;2023-05-11T04:40:29;96687.28;;;11.92;100.00
39363;BME280;25088;43.238;23.110;2023-05-11T04:42:54;96689.84;;;12.03;100.00
39363;BME280;25088;43.238;23.110;2023-05-11T04:45:20;96699.47;;;12.06;100.00
39363;BME280;25088;43.238;23.110;2023-05-11T04:47:45;96700.59;;;12.10;100.00
39363;BME280;25088;43.238;23.110;2023-05-11T04:50:10;96702.28;;;12.16;100.00
39363;BME280;25088;43.238;23.110;2023-05-11T04:52:36;96698.75;;;12.21;100.00
39363;BME280;25088;43.238;23.110;2023-05-11T04:55:02;96706.47;;;12.24;100.00
39363;BME280;25088;43.238;23.110;2023-05-11T04:57:27;96698.31;;;12.34;100.00
39363;BME280;25088;43.238;23.110;2023-05-11T04:59:52;96703.53;;;12.35;100.00
39363;BME280;25088;43.238;23.110;2023-05-11T05:02:18;96706.56;;;12.39;100.00
39363;BME280;25088;43.238;23.110;2023-05-11T05:04:44;96700.81;;;12.40;100.00
39363;BME280;25088;43.238;23.110;2023-05-11T05:07:09;96709.63;;;12.48;100.00
39363;BME280;25088;43.238;23.110;2023-05-11T05:09:35;96714.88;;;12.54;100.00
39363;BME280;25088;43.238;23.110;2023-05-11T05:12:00;96711.88;;;12.56;100.00
39363;BME280;25088;43.238;23.110;2023-05-11T05:14:26;96709.38;;;12.49;100.00
39363;BME280;25088;43.238;23.110;2023-05-11T05:16:51;96710.72;;;12.47;100.00
39363;BME280;25088;43.238;23.110;2023-05-11T05:19:18;96695.00;;;12.32;100.00
39363;BME280;25088;43.238;23.110;2023-05-11T05:21:44;96699.38;;;12.33;100.00
39363;BME280;25088;43.238;23.110;2023-05-11T05:24:09;96711.78;;;12.40;100.00
39363;BME280;25088;43.238;23.110;2023-05-11T05:26:36;96707.41;;;12.45;100.00
39363;BME280;25088;43.238;23.110;2023-05-11T05:29:01;96709.38;;;12.49;100.00
39363;BME280;25088;43.238;23.110;2023-05-11T05:31:27;96703.66;;;12.56;100.00
39363;BME280;25088;43.238;23.110;2023-05-11T05:33:52;96710.03;;;12.66;100.00
39363;BME280;25088;43.238;23.110;2023-05-11T05:36:18;96702.44;;;12.79;100.00
39363;BME280;25088;43.238;23.110;2023-05-11T05:38:43;96710.16;;;12.92;100.00
39363;BME280;25088;43.238;23.110;2023-05-11T05:41:10;96702.59;;;13.09;97.48
39363;BME280;25088;43.238;23.110;2023-05-11T05:43:35;96703.72;;;13.18;94.66
39363;BME280;25088;43.238;23.110;2023-05-11T05:46:01;96704.03;;;13.22;93.46
39363;BME280;25088;43.238;23.110;2023-05-11T05:48:26;96693.81;;;13.12;92.28
39363;BME280;25088;43.238;23.110;2023-05-11T05:50:52;96709.53;;;13.32;91.46
39363;BME280;25088;43.238;23.110;2023-05-11T05:53:17;96718.66;;;13.43;90.83
39363;BME280;25088;43.238;23.110;2023-05-11T05:55:42;96715.13;;;13.48;91.63
39363;BME280;25088;43.238;23.110;2023-05-11T05:58:08;96715.94;;;13.48;90.95
39363;BME280;25088;43.238;23.110;2023-05-11T06:00:34;96700.53;;;13.47;90.24
39363;BME280;25088;43.238;23.110;2023-05-11T06:03:00;96717.59;;;13.54;88.85
39363;BME280;25088;43.238;23.110;2023-05-11T06:05:26;96721.97;;;13.60;90.31
39363;BME280;25088;43.238;23.110;2023-05-11T06:07:51;96716.81;;;13.69;90.24
39363;BME280;25088;43.238;23.110;2023-05-11T06:10:17;96717.94;;;13.78;91.10
39363;BME280;25088;43.238;23.110;2023-05-11T06:12:42;96717.94;;;13.88;89.56
39363;BME280;25088;43.238;23.110;2023-05-11T06:15:08;96717.94;;;13.93;89.75
39363;BME280;25088;43.238;23.110;2023-05-11T06:17:33;96722.34;;;13.94;88.07
39363;BME280;25088;43.238;23.110;2023-05-11T06:19:59;96719.00;;;13.82;88.37
39363;BME280;25088;43.238;23.110;2023-05-11T06:22:24;96726.72;;;13.90;87.14
39363;BME280;25088;43.238;23.110;2023-05-11T06:24:50;96728.94;;;13.93;88.58
39363;BME280;25088;43.238;23.110;2023-05-11T06:27:15;96724.25;;;13.84;89.19
39363;BME280;25088;43.238;23.110;2023-05-11T06:29:41;96722.63;;;13.98;89.20
39363;BME280;25088;43.238;23.110;2023-05-11T06:32:07;96724.56;;;14.03;89.41
39363;BME280;25088;43.238;23.110;2023-05-11T06:34:32;96728.13;;;14.03;89.87
39363;BME280;25088;43.238;23.110;2023-05-11T06:36:58;96722.34;;;13.94;88.54
39363;BME280;25088;43.238;23.110;2023-05-11T06:39:24;96717.66;;;13.95;90.24
39363;BME280;25088;43.238;23.110;2023-05-11T06:41:53;96729.47;;;14.16;89.86
39363;BME280;25088;43.238;23.110;2023-05-11T06:44:18;96724.00;;;14.26;89.58
39363;BME280;25088;43.238;23.110;2023-05-11T06:46:44;96719.06;;;14.23;90.22
39363;BME280;25088;43.238;23.110;2023-05-11T06:49:09;96729.50;;;14.21;91.02
39363;BME280;25088;43.238;23.110;2023-05-11T06:51:35;96712.47;;;14.24;90.76
39363;BME280;25088;43.238;23.110;2023-05-11T06:54:00;96734.16;;;14.41;88.97
39363;BME280;25088;43.238;23.110;2023-05-11T06:56:26;96729.50;;;14.36;90.36
39363;BME280;25088;43.238;23.110;2023-05-11T06:58:52;96727.84;;;14.30;88.94
39363;BME280;25088;43.238;23.110;2023-05-11T07:01:17;96732.53;;;14.25;90.41
39363;BME280;25088;43.238;23.110;2023-05-11T07:03:43;96742.41;;;14.31;89.78
39363;BME280;25088;43.238;23.110;2023-05-11T07:06:08;96727.84;;;14.30;88.88
39363;BME280;25088;43.238;23.110;2023-05-11T07:08:33;96741.56;;;14.20;89.50
39363;BME280;25088;43.238;23.110;2023-05-11T07:10:59;96746.78;;;14.16;89.02
39363;BME280;25088;43.238;23.110;2023-05-11T07:13:24;96752.56;;;14.30;88.97
39363;BME280;25088;43.238;23.110;2023-05-11T07:15:50;96752.06;;;14.48;88.25
39363;BME280;25088;43.238;23.110;2023-05-11T07:18:15;96751.78;;;14.50;84.77
39363;BME280;25088;43.238;23.110;2023-05-11T07:20:41;96754.81;;;14.59;82.45
39363;BME280;25088;43.238;23.110;2023-05-11T07:23:06;96754.25;;;14.72;80.70
39363;BME280;25088;43.238;23.110;2023-05-11T07:25:32;96756.69;;;14.79;80.76
39363;BME280;25088;43.238;23.110;2023-05-11T07:27:57;96762.19;;;14.79;79.78
39363;BME280;25088;43.238;23.110;2023-05-11T07:30:23;96767.97;;;14.77;80.39
39363;BME280;25088;43.238;23.110;2023-05-11T07:32:49;96766.28;;;14.96;80.07
39363;BME280;25088;43.238;23.110;2023-05-11T07:35:15;96761.31;;;15.14;79.95
39363;BME280;25088;43.238;23.110;2023-05-11T07:37:40;96755.28;;;15.07;77.47
39363;BME280;25088;43.238;23.110;2023-05-11T07:40:07;96765.41;;;15.11;76.99
39363;BME280;25088;43.238;23.110;2023-05-11T07:42:32;96765.19;;;15.03;76.98
39363;BME280;25088;43.238;23.110;2023-05-11T07:44:58;96763.22;;;15.18;75.33
39363;BME280;25088;43.238;23.110;2023-05-11T07:47:23;96771.44;;;15.29;75.72
39363;BME280;25088;43.238;23.110;2023-05-11T07:49:49;96768.69;;;15.29;76.44
39363;BME280;25088;43.238;23.110;2023-05-11T07:52:15;96770.63;;;15.28;75.61
39363;BME280;25088;43.238;23.110;2023-05-11T07:54:40;96768.41;;;15.30;75.92
39363;BME280;25088;43.238;23.110;2023-05-11T07:57:06;96765.41;;;15.27;76.26
39363;BME280;25088;43.238;23.110;2023-05-11T07:59:32;96777.47;;;15.31;75.11
39363;BME280;25088;43.238;23.110;2023-05-11T08:01:57;96768.66;;;15.39;75.08
39363;BME280;25088;43.238;23.110;2023-05-11T08:04:25;96757.09;;;15.42;74.50
39363;BME280;25088;43.238;23.110;2023-05-11T08:06:51;96753.81;;;15.30;73.24
39363;BME280;25088;43.238;23.110;2023-05-11T08:09:16;96773.59;;;15.47;72.24
39363;BME280;25088;43.238;23.110;2023-05-11T08:11:42;96775.97;;;15.74;71.51
39363;BME280;25088;43.238;23.110;2023-05-11T08:14:07;96778.06;;;15.97;72.34
39363;BME280;25088;43.238;23.110;2023-05-11T08:16:33;96773.63;;;16.01;69.93
39363;BME280;25088;43.238;23.110;2023-05-11T08:19:01;96779.97;;;16.02;70.89
39363;BME280;25088;43.238;23.110;2023-05-11T08:21:26;96774.91;;;16.14;69.35
39363;BME280;25088;43.238;23.110;2023-05-11T08:23:51;96777.06;;;16.22;68.42
39363;BME280;25088;43.238;23.110;2023-05-11T08:26:17;96778.97;;;16.27;67.69
39363;BME280;25088;43.238;23.110;2023-05-11T08:28:42;96774.66;;;16.50;67.83
39363;BME280;25088;43.238;23.110;2023-05-11T08:31:08;96783.03;;;16.35;67.41
39363;BME280;25088;43.238;23.110;2023-05-11T08:33:33;96778.84;;;16.42;67.13
39363;BME280;25088;43.238;23.110;2023-05-11T08:35:59;96784.34;;;16.47;65.69
39363;BME280;25088;43.238;23.110;2023-05-11T08:38:24;96775.44;;;16.55;66.13
39363;BME280;25088;43.238;23.110;2023-05-11T08:40:50;96783.59;;;16.76;66.31
39363;BME280;25088;43.238;23.110;2023-05-11T08:43:17;96784.59;;;16.85;64.47
39363;BME280;25088;43.238;23.110;2023-05-11T08:45:44;96775.31;;;16.76;63.82
39363;BME280;25088;43.238;23.110;2023-05-11T08:48:14;96766.75;;;17.07;65.33
39363;BME280;25088;43.238;23.110;2023-05-11T08:50:45;96763.34;;;17.15;65.08
39363;BME280;25088;43.238;23.110;2023-05-11T08:53:12;96773.00;;;17.41;61.55
39363;BME280;25088;43.238;23.110;2023-05-11T08:55:38;96778.16;;;17.48;61.62
39363;BME280;25088;43.238;23.110;2023-05-11T08:58:06;96767.03;;;17.29;61.96
39363;BME280;25088;43.238;23.110;2023-05-11T09:00:33;96764.06;;;17.73;61.36
39363;BME280;25088;43.238;23.110;2023-05-11T09:02:59;96756.88;;;17.48;62.64
39363;BME280;25088;43.238;23.110;2023-05-11T09:05:25;96770.81;;;17.62;62.04
39363;BME280;25088;43.238;23.110;2023-05-11T09:07:54;96762.84;;;17.61;59.58
39363;BME280;25088;43.238;23.110;2023-05-11T09:10:21;96770.94;;;17.76;59.74
39363;BME280;25088;43.238;23.110;2023-05-11T09:12:46;96769.16;;;17.85;59.01
39363;BME280;25088;43.238;23.110;2023-05-11T09:15:12;96758.00;;;17.95;58.75
39363;BME280;25088;43.238;23.110;2023-05-11T09:17:37;96770.97;;;18.14;58.51
39363;BME280;25088;43.238;23.110;2023-05-11T09:20:04;96776.34;;;18.24;57.37
39363;BME280;25088;43.238;23.110;2023-05-11T09:22:40;96773.31;;;18.25;58.49
39363;BME280;25088;43.238;23.110;2023-05-11T09:25:10;96775.53;;;18.23;59.03
39363;BME280;25088;43.238;23.110;2023-05-11T09:27:40;96755.53;;;18.13;58.87
39363;BME280;25088;43.238;23.110;2023-05-11T09:30:20;96770.59;;;18.39;57.65
39363;BME280;25088;43.238;23.110;2023-05-11T09:32:53;96775.59;;;18.56;57.83
39363;BME280;25088;43.238;23.110;2023-05-11T09:35:30;96774.56;;;18.14;58.84
39363;BME280;25088;43.238;23.110;2023-05-11T09:38:03;96757.25;;;18.27;59.09
39363;BME280;25088;43.238;23.110;2023-05-11T09:40:34;96770.97;;;18.32;57.81
39363;BME280;25088;43.238;23.110;2023-05-11T09:43:01;96767.41;;;18.32;57.03
39363;BME280;25088;43.238;23.110;2023-05-11T09:45:37;96760.59;;;18.43;56.04
39363;BME280;25088;43.238;23.110;2023-05-11T09:48:26;96761.19;;;18.40;56.12
39363;BME280;25088;43.238;23.110;2023-05-11T09:50:57;96763.25;;;18.67;55.94
39363;BME280;25088;43.238;23.110;2023-05-11T09:53:34;96760.38;;;18.91;54.70
39363;BME280;25088;43.238;23.110;2023-05-11T09:55:59;96755.53;;;18.31;55.53
39363;BME280;25088;43.238;23.110;2023-05-11T09:58:25;96755.34;;;18.60;54.83
39363;BME280;25088;43.238;23.110;2023-05-11T10:00:51;96751.69;;;18.46;54.23
39363;BME280;25088;43.238;23.110;2023-05-11T10:03:18;96743.09;;;18.48;54.19
39363;BME280;25088;43.238;23.110;2023-05-11T10:05:58;96747.22;;;18.83;54.92
39363;BME280;25088;43.238;23.110;2023-05-11T10:08:28;96745.72;;;19.04;54.42
39363;BME280;25088;43.238;23.110;2023-05-11T10:11:03;96742.09;;;19.36;52.11
39363;BME280;25088;43.238;23.110;2023-05-11T10:13:31;96749.56;;;19.22;50.69
39363;BME280;25088;43.238;23.110;2023-05-11T10:15:58;96739.38;;;19.04;51.36
39363;BME280;25088;43.238;23.110;2023-05-11T10:18:25;96736.44;;;19.00;50.59
39363;BME280;25088;43.238;23.110;2023-05-11T10:20:51;96738.19;;;19.24;51.26
39363;BME280;25088;43.238;23.110;2023-05-11T10:23:18;96733.28;;;19.34;50.60
39363;BME280;25088;43.238;23.110;2023-05-11T10:25:44;96730.00;;;19.74;50.22
39363;BME280;25088;43.238;23.110;2023-05-11T10:28:12;96723.50;;;19.92;49.42
39363;BME280;25088;43.238;23.110;2023-05-11T10:30:38;96726.25;;;20.06;50.50
39363;BME280;25088;43.238;23.110;2023-05-11T10:33:05;96723.44;;;20.20;46.42
39363;BME280;25088;43.238;23.110;2023-05-11T10:35:31;96716.97;;;20.24;46.37
39363;BME280;25088;43.238;23.110;2023-05-11T10:37:57;96721.66;;;20.01;46.57
39363;BME280;25088;43.238;23.110;2023-05-11T10:40:23;96711.97;;;20.12;45.67
39363;BME280;25088;43.238;23.110;2023-05-11T10:45:50;96709.88;;;20.77;42.61
39363;BME280;25088;43.238;23.110;2023-05-11T10:51:15;96716.13;;;21.45;42.41
39363;BME280;25088;43.238;23.110;2023-05-11T10:54:03;96696.91;;;21.83;41.05
39363;BME280;25088;43.238;23.110;2023-05-11T11:02:02;96713.94;;;21.33;41.66
39363;BME280;25088;43.238;23.110;2023-05-11T11:04:47;96712.53;;;21.53;41.92
39363;BME280;25088;43.238;23.110;2023-05-11T11:07:14;96706.47;;;21.42;42.06
39363;BME280;25088;43.238;23.110;2023-05-11T11:09:57;96709.53;;;21.32;42.02
39363;BME280;25088;43.238;23.110;2023-05-11T11:12:25;96711.22;;;21.10;42.35
39363;BME280;25088;43.238;23.110;2023-05-11T11:15:02;96708.47;;;20.88;43.03
39363;BME280;25088;43.238;23.110;2023-05-11T11:17:33;96700.19;;;20.97;42.48
39363;BME280;25088;43.238;23.110;2023-05-11T11:20:01;96708.31;;;20.62;43.16
39363;BME280;25088;43.238;23.110;2023-05-11T11:25:03;96699.22;;;20.70;44.19
39363;BME280;25088;43.238;23.110;2023-05-11T11:30:20;96694.59;;;20.43;43.89
39363;BME280;25088;43.238;23.110;2023-05-11T11:32:48;96696.72;;;20.24;43.67
39363;BME280;25088;43.238;23.110;2023-05-11T11:38:05;96691.69;;;20.26;42.92
39363;BME280;25088;43.238;23.110;2023-05-11T11:40:37;96677.66;;;20.45;42.77
39363;BME280;25088;43.238;23.110;2023-05-11T11:43:16;96691.75;;;19.76;44.42
39363;BME280;25088;43.238;23.110;2023-05-11T11:48:28;96689.91;;;20.07;44.71
39363;BME280;25088;43.238;23.110;2023-05-11T11:51:12;96694.06;;;19.96;43.78
39363;BME280;25088;43.238;23.110;2023-05-11T12:01:18;96696.53;;;19.84;44.20
39363;BME280;25088;43.238;23.110;2023-05-11T12:03:45;96689.47;;;19.78;43.49
39363;BME280;25088;43.238;23.110;2023-05-11T12:06:12;96693.97;;;19.87;43.06
39363;BME280;25088;43.238;23.110;2023-05-11T12:08:39;96690.50;;;19.82;43.06
39363;BME280;25088;43.238;23.110;2023-05-11T12:11:06;96698.38;;;19.88;43.25
39363;BME280;25088;43.238;23.110;2023-05-11T12:13:32;96696.16;;;19.77;43.00
39363;BME280;25088;43.238;23.110;2023-05-11T12:18:34;96693.91;;;19.51;43.17
39363;BME280;25088;43.238;23.110;2023-05-11T12:20:59;96696.88;;;19.41;44.09
39363;BME280;25088;43.238;23.110;2023-05-11T12:23:25;96700.47;;;19.00;43.87
39363;BME280;25088;43.238;23.110;2023-05-11T12:26:04;96698.19;;;19.02;42.92
39363;BME280;25088;43.238;23.110;2023-05-11T12:28:33;96699.06;;;18.84;43.96
39363;BME280;25088;43.238;23.110;2023-05-11T12:30:59;96685.75;;;18.72;44.33
39363;BME280;25088;43.238;23.110;2023-05-11T12:33:25;96690.41;;;18.58;45.83
39363;BME280;25088;43.238;23.110;2023-05-11T12:35:52;96666.59;;;18.11;47.82
39363;BME280;25088;43.238;23.110;2023-05-11T12:38:17;96690.09;;;17.89;49.29
39363;BME280;25088;43.238;23.110;2023-05-11T12:40:47;96684.22;;;17.77;51.88
39363;BME280;25088;43.238;23.110;2023-05-11T12:43:16;96684.25;;;17.53;53.81
39363;BME280;25088;43.238;23.110;2023-05-11T12:45:42;96675.72;;;17.30;53.72
39363;BME280;25088;43.238;23.110;2023-05-11T12:48:08;96656.88;;;16.90;54.75
39363;BME280;25088;43.238;23.110;2023-05-11T12:50:42;96672.59;;;16.89;54.60
39363;BME280;25088;43.238;23.110;2023-05-11T12:53:15;96681.47;;;16.86;56.18
39363;BME280;25088;43.238;23.110;2023-05-11T12:55:41;96674.34;;;16.80;55.89
39363;BME280;25088;43.238;23.110;2023-05-11T12:58:16;96661.16;;;16.77;56.36
39363;BME280;25088;43.238;23.110;2023-05-11T13:00:53;96663.44;;;16.65;56.06
39363;BME280;25088;43.238;23.110;2023-05-11T13:03:26;96662.84;;;16.73;56.30
39363;BME280;25088;43.238;23.110;2023-05-11T13:06:11;96666.16;;;16.70;56.23
39363;BME280;25088;43.238;23.110;2023-05-11T13:08:39;96658.75;;;16.65;56.20
39363;BME280;25088;43.238;23.110;2023-05-11T13:11:24;96643.84;;;16.71;56.99
39363;BME280;25088;43.238;23.110;2023-05-11T13:13:55;96658.34;;;16.82;58.20
39363;BME280;25088;43.238;23.110;2023-05-11T13:19:25;96653.28;;;16.89;58.75
39363;BME280;25088;43.238;23.110;2023-05-11T13:21:52;96642.72;;;16.72;57.10
39363;BME280;25088;43.238;23.110;2023-05-11T13:24:21;96643.44;;;16.83;56.71
39363;BME280;25088;43.238;23.110;2023-05-11T13:26:47;96644.84;;;16.80;56.79
39363;BME280;25088;43.238;23.110;2023-05-11T13:29:13;96648.72;;;16.79;56.74